createdAt,value
2023-04-28T00:00:14.162Z,66.24
2023-04-28T00:05:16.729Z,67.11
2023-04-28T00:10:18.956Z,69.07
2023-04-28T00:15:23.271Z,67.83
2023-04-28T00:20:25.461Z,66.13
2023-04-28T00:25:27.636Z,65.26
2023-04-28T00:30:32.960Z,64.58
2023-04-28T00:35:35.145Z,65.17
2023-04-28T00:40:39.571Z,65.45
2023-04-28T00:45:41.940Z,64.31
2023-04-28T00:50:48.750Z,64.21
2023-04-28T00:55:54.315Z,63.47
2023-04-28T01:01:04.882Z,64.23
2023-04-28T01:06:09.734Z,64.59
2023-04-28T01:11:14.503Z,65.31
2023-04-28T01:16:34.087Z,64.29
2023-04-28T01:21:37.584Z,64.83
2023-04-28T01:26:49.798Z,65.98
2023-04-28T01:31:51.943Z,64.95
2023-04-28T01:36:54.116Z,64.21
2023-04-28T01:41:56.393Z,64.48
2023-04-28T01:47:00.841Z,65.21
2023-04-28T01:52:03.473Z,65.49
2023-04-28T01:57:31.965Z,65.13
2023-04-28T02:02:37.161Z,65.78
2023-04-28T02:07:41.552Z,67.29
2023-04-28T02:12:43.972Z,67.59
2023-04-28T02:17:48.261Z,68.63
2023-04-28T02:22:50.577Z,69.31
2023-04-28T02:27:52.752Z,69.66
2023-04-28T02:32:55.910Z,70.35
2023-04-28T02:37:58.107Z,70.60
2023-04-28T02:43:00.702Z,71.06
2023-04-28T02:48:05.284Z,72.21
2023-04-28T02:53:07.489Z,73.80
2023-04-28T02:58:10.186Z,75.58
2023-04-28T03:03:12.918Z,75.94
2023-04-28T03:08:15.310Z,75.45
2023-04-28T03:13:18.372Z,78.51
2023-04-28T03:18:20.642Z,78.13
2023-04-28T03:23:22.861Z,78.11
2023-04-28T03:28:25.201Z,77.18
2023-04-28T03:33:27.752Z,75.49
2023-04-28T03:38:30.976Z,74.56
2023-04-28T03:43:37.639Z,75.89
2023-04-28T03:49:02.464Z,75.26
2023-04-28T03:54:05.957Z,74.86
2023-04-28T03:59:11.889Z,78.25
2023-04-28T04:04:14.723Z,78.10
2023-04-28T04:09:17.429Z,78.83
2023-04-28T04:14:19.716Z,79.01
2023-04-28T04:19:24.155Z,79.89
2023-04-28T04:24:29.159Z,77.66
2023-04-28T04:29:31.841Z,75.88
2023-04-28T04:34:36.248Z,76.89
2023-04-28T04:39:39.329Z,77.76
2023-04-28T04:44:41.757Z,77.44
2023-04-28T04:49:53.378Z,75.63
2023-04-28T04:54:58.439Z,76.40
2023-04-28T05:00:01.103Z,79.71
2023-04-28T05:05:16.853Z,86.45
2023-04-28T05:10:27.582Z,97.78
2023-04-28T05:15:32.226Z,100.00
2023-04-28T05:21:02.566Z,100.00
2023-04-28T05:26:05.686Z,100.00
2023-04-28T05:31:08.294Z,100.00
2023-04-28T05:36:11.153Z,100.00
2023-04-28T05:41:13.660Z,100.00
2023-04-28T05:46:29.088Z,100.00
2023-04-28T05:51:34.220Z,100.00
2023-04-28T05:56:37.925Z,100.00
2023-04-28T06:01:42.346Z,100.00
2023-04-28T06:06:44.807Z,100.00
2023-04-28T06:11:49.850Z,100.00
2023-04-28T06:16:55.017Z,100.00
2023-04-28T06:21:59.686Z,100.00
2023-04-28T06:27:02.956Z,100.00
2023-04-28T06:32:06.218Z,100.00
2023-04-28T06:37:08.652Z,100.00
2023-04-28T06:42:11.017Z,100.00
2023-04-28T06:47:17.486Z,100.00
2023-04-28T06:52:24.892Z,100.00
2023-04-28T06:57:36.269Z,100.00
2023-04-28T07:02:38.764Z,100.00
2023-04-28T07:07:41.290Z,100.00
2023-04-28T07:12:43.600Z,100.00
2023-04-28T07:17:45.983Z,100.00
2023-04-28T07:22:48.270Z,100.00
2023-04-28T07:27:50.477Z,100.00
2023-04-28T07:32:52.854Z,100.00
2023-04-28T07:37:55.947Z,100.00
2023-04-28T07:42:58.093Z,100.00
2023-04-28T07:48:00.304Z,100.00
2023-04-28T07:53:02.587Z,100.00
2023-04-28T07:58:05.599Z,100.00
2023-04-28T08:03:08.023Z,100.00
2023-04-28T08:08:10.511Z,100.00
2023-04-28T08:13:13.099Z,100.00
2023-04-28T08:18:15.840Z,100.00
2023-04-28T08:23:18.012Z,100.00
2023-04-28T08:28:20.311Z,100.00
2023-04-28T08:33:24.048Z,100.00
2023-04-28T08:38:27.216Z,100.00
2023-04-28T08:43:30.330Z,100.00
2023-04-28T08:48:41.187Z,100.00
2023-04-28T08:59:06.823Z,100.00
2023-04-28T09:04:14.030Z,100.00
2023-04-28T09:09:27.035Z,100.00
2023-04-28T09:14:33.050Z,100.00
2023-04-28T09:19:38.194Z,100.00
2023-04-28T09:24:43.012Z,100.00
2023-04-28T09:29:55.863Z,100.00
2023-04-28T09:34:58.101Z,100.00
2023-04-28T09:40:12.487Z,100.00
2023-04-28T09:45:16.463Z,100.00
2023-04-28T09:50:19.124Z,100.00
2023-04-28T09:55:21.406Z,100.00
2023-04-28T10:00:24.424Z,100.00
2023-04-28T10:05:26.945Z,100.00
2023-04-28T10:10:29.814Z,100.00
2023-04-28T10:15:33.774Z,100.00
2023-04-28T10:20:39.361Z,100.00
2023-04-28T10:25:43.664Z,100.00
2023-04-28T10:31:11.181Z,100.00
2023-04-28T10:36:55.166Z,100.00
2023-04-28T10:41:57.585Z,100.00
2023-04-28T10:47:10.846Z,100.00
2023-04-28T10:52:41.112Z,100.00
2023-04-28T10:57:43.414Z,100.00
2023-04-28T11:02:48.031Z,100.00
2023-04-28T11:08:31.214Z,100.00
2023-04-28T11:13:34.639Z,100.00
2023-04-28T11:19:05.101Z,100.00
2023-04-28T11:24:11.475Z,100.00
2023-04-28T11:29:15.339Z,100.00
2023-04-28T11:34:22.692Z,100.00
2023-04-28T11:39:33.777Z,100.00
2023-04-28T11:44:36.373Z,100.00
2023-04-28T11:49:47.864Z,100.00
2023-04-28T11:55:00.392Z,100.00
2023-04-28T12:00:22.079Z,100.00
2023-04-28T12:05:24.417Z,100.00
2023-04-28T12:10:26.646Z,100.00
2023-04-28T12:15:41.466Z,100.00
2023-04-28T12:20:43.872Z,100.00
2023-04-28T12:25:48.259Z,100.00
2023-04-28T12:30:51.211Z,100.00
2023-04-28T12:35:57.479Z,100.00
2023-04-28T12:41:00.670Z,100.00
2023-04-28T12:46:04.274Z,100.00
2023-04-28T12:51:06.652Z,100.00
2023-04-28T12:56:08.947Z,100.00
2023-04-28T13:01:11.263Z,99.70
2023-04-28T13:06:13.566Z,96.61
2023-04-28T13:11:22.670Z,100.00
2023-04-28T13:16:29.067Z,100.00
2023-04-28T13:21:32.161Z,100.00
2023-04-28T13:26:34.715Z,96.90
2023-04-28T13:31:37.304Z,93.15
2023-04-28T13:36:39.496Z,100.00
2023-04-28T13:41:41.975Z,100.00
2023-04-28T13:46:44.214Z,100.00
2023-04-28T13:51:46.386Z,100.00
2023-04-28T13:56:48.907Z,100.00
2023-04-28T14:01:52.064Z,100.00
2023-04-28T14:06:54.473Z,100.00
2023-04-28T14:11:57.012Z,100.00
2023-04-28T14:16:59.651Z,100.00
2023-04-28T14:22:02.877Z,100.00
2023-04-28T14:27:05.096Z,100.00
2023-04-28T14:32:07.428Z,100.00
2023-04-28T14:37:10.071Z,100.00
2023-04-28T14:42:12.570Z,100.00
2023-04-28T14:47:15.188Z,100.00
2023-04-28T14:52:18.045Z,100.00
2023-04-28T14:57:20.462Z,100.00
2023-04-28T15:02:28.616Z,100.00
2023-04-28T15:07:33.916Z,100.00
2023-04-28T15:12:36.097Z,100.00
2023-04-28T15:17:38.352Z,100.00
2023-04-28T15:22:41.205Z,100.00
2023-04-28T15:27:43.667Z,100.00
2023-04-28T15:32:45.984Z,100.00
2023-04-28T15:37:48.352Z,100.00
2023-04-28T15:42:53.272Z,100.00
2023-04-28T15:47:55.871Z,100.00
2023-04-28T15:52:58.313Z,100.00
2023-04-28T15:58:01.460Z,100.00
2023-04-28T16:03:03.870Z,100.00
2023-04-28T16:08:06.223Z,100.00
2023-04-28T16:13:11.804Z,100.00
2023-04-28T16:18:14.353Z,100.00
2023-04-28T16:23:16.800Z,100.00
2023-04-28T16:28:19.148Z,100.00
2023-04-28T16:33:21.463Z,100.00
2023-04-28T16:38:23.845Z,100.00
2023-04-28T16:43:29.061Z,100.00
2023-04-28T16:48:31.342Z,100.00
2023-04-28T16:53:36.712Z,100.00
2023-04-28T16:58:38.982Z,100.00
2023-04-28T17:03:42.335Z,100.00
2023-04-28T17:08:44.726Z,100.00
2023-04-28T17:13:47.541Z,100.00
2023-04-28T17:18:49.921Z,100.00
2023-04-28T17:23:52.121Z,100.00
2023-04-28T17:28:58.936Z,100.00
2023-04-28T17:34:01.304Z,100.00
2023-04-28T17:39:04.722Z,100.00
2023-04-28T17:44:07.021Z,100.00
2023-04-28T17:49:09.369Z,100.00
2023-04-28T17:54:11.632Z,100.00
2023-04-28T17:59:16.172Z,100.00
2023-04-28T18:04:18.333Z,100.00
2023-04-28T18:09:20.554Z,100.00
2023-04-28T18:14:23.332Z,100.00
2023-04-28T18:19:30.485Z,100.00
2023-04-28T18:24:32.639Z,100.00
2023-04-28T18:29:34.884Z,100.00
2023-04-28T18:34:37.015Z,100.00
2023-04-28T18:39:39.220Z,100.00
2023-04-28T18:44:41.661Z,100.00
2023-04-28T18:49:44.135Z,100.00
2023-04-28T18:54:46.547Z,100.00
2023-04-28T18:59:49.327Z,100.00
2023-04-28T19:04:51.832Z,100.00
2023-04-28T19:09:54.131Z,100.00
2023-04-28T19:14:56.530Z,100.00
2023-04-28T19:19:59.140Z,100.00
2023-04-28T19:25:02.524Z,100.00
2023-04-28T19:30:07.423Z,100.00
2023-04-28T19:35:10.426Z,100.00
2023-04-28T19:40:13.255Z,100.00
2023-04-28T19:45:17.133Z,100.00
2023-04-28T19:50:19.700Z,100.00
2023-04-28T19:55:23.957Z,100.00
2023-04-28T20:00:28.897Z,100.00
2023-04-28T20:05:32.105Z,100.00
2023-04-28T20:10:34.301Z,100.00
2023-04-28T20:15:36.557Z,100.00
2023-04-28T20:20:38.775Z,100.00
2023-04-28T20:25:41.514Z,100.00
2023-04-28T20:30:43.778Z,100.00
2023-04-28T20:35:45.936Z,100.00
2023-04-28T20:40:48.195Z,100.00
2023-04-28T20:45:50.732Z,100.00
2023-04-28T20:50:55.331Z,100.00
2023-04-28T20:55:57.788Z,100.00
2023-04-28T21:01:00.050Z,100.00
2023-04-28T21:06:02.211Z,100.00
2023-04-28T21:11:04.814Z,100.00
2023-04-28T21:16:16.479Z,100.00
2023-04-28T21:21:20.620Z,100.00
2023-04-28T21:26:24.090Z,100.00
2023-04-28T21:31:26.779Z,100.00
2023-04-28T21:36:29.013Z,100.00
2023-04-28T21:41:33.573Z,100.00
2023-04-28T21:46:36.133Z,100.00
2023-04-28T21:51:39.526Z,100.00
2023-04-28T21:56:41.796Z,100.00
2023-04-28T22:01:44.273Z,100.00
2023-04-28T22:06:46.766Z,100.00
2023-04-28T22:11:48.923Z,100.00
2023-04-28T22:16:51.117Z,100.00
2023-04-28T22:21:53.355Z,100.00
2023-04-28T22:26:55.518Z,100.00
2023-04-28T22:31:58.856Z,100.00
2023-04-28T22:37:01.054Z,100.00
2023-04-28T22:42:04.443Z,100.00
2023-04-28T22:47:06.828Z,100.00
2023-04-28T22:52:09.023Z,100.00
2023-04-28T22:57:11.269Z,100.00
2023-04-28T23:02:13.861Z,100.00
2023-04-28T23:07:15.999Z,100.00
2023-04-28T23:12:18.382Z,100.00
2023-04-28T23:17:20.563Z,100.00
2023-04-28T23:22:22.890Z,100.00
2023-04-28T23:27:25.410Z,100.00
2023-04-28T23:32:27.692Z,100.00
2023-04-28T23:37:30.133Z,100.00
2023-04-28T23:42:32.391Z,100.00
2023-04-28T23:47:34.818Z,100.00
2023-04-28T23:52:37.422Z,100.00
2023-04-28T23:57:40.601Z,100.00
